sensor_id;sensor_type;location;lat;lon;timestamp;P1;durP1;ratioP1;P2;durP2;ratioP2
11245;SDS011;59870;50.106;8.580;2023-09-19T00:00:47;4.57;;;3.77;;
11245;SDS011;59870;50.106;8.580;2023-09-19T00:03:16;3.90;;;3.40;;
11245;SDS011;59870;50.106;8.580;2023-09-19T00:05:44;3.47;;;3.27;;
11245;SDS011;59870;50.106;8.580;2023-09-19T00:08:13;3.53;;;3.33;;
11245;SDS011;59870;50.106;8.580;2023-09-19T00:10:41;3.60;;;3.40;;
11245;SDS011;59870;50.106;8.580;2023-09-19T00:13:09;3.73;;;3.53;;
11245;SDS011;59870;50.106;8.580;2023-09-19T00:15:42;4.20;;;3.90;;
11245;SDS011;59870;50.106;8.580;2023-09-19T00:18:17;3.70;;;3.40;;
11245;SDS011;59870;50.106;8.580;2023-09-19T00:20:49;3.83;;;3.53;;
11245;SDS011;59870;50.106;8.580;2023-09-19T00:23:18;3.50;;;3.20;;
11245;SDS011;59870;50.106;8.580;2023-09-19T00:25:46;3.57;;;3.27;;
11245;SDS011;59870;50.106;8.580;2023-09-19T00:28:13;3.73;;;3.53;;
11245;SDS011;59870;50.106;8.580;2023-09-19T00:30:43;4.33;;;3.40;;
11245;SDS011;59870;50.106;8.580;2023-09-19T00:33:12;3.33;;;3.13;;
11245;SDS011;59870;50.106;8.580;2023-09-19T00:35:50;3.87;;;3.17;;
11245;SDS011;59870;50.106;8.580;2023-09-19T00:38:21;3.70;;;3.50;;
11245;SDS011;59870;50.106;8.580;2023-09-19T00:40:54;4.07;;;3.63;;
11245;SDS011;59870;50.106;8.580;2023-09-19T00:43:25;3.93;;;3.63;;
11245;SDS011;59870;50.106;8.580;2023-09-19T00:45:54;3.93;;;3.63;;
11245;SDS011;59870;50.106;8.580;2023-09-19T00:48:23;3.77;;;3.47;;
11245;SDS011;59870;50.106;8.580;2023-09-19T00:50:54;4.27;;;3.97;;
11245;SDS011;59870;50.106;8.580;2023-09-19T00:53:23;4.07;;;3.77;;
11245;SDS011;59870;50.106;8.580;2023-09-19T00:55:52;4.20;;;4.00;;
11245;SDS011;59870;50.106;8.580;2023-09-19T00:58:19;4.70;;;3.90;;
11245;SDS011;59870;50.106;8.580;2023-09-19T01:00:50;3.70;;;3.50;;
11245;SDS011;59870;50.106;8.580;2023-09-19T01:03:20;3.30;;;3.10;;
11245;SDS011;59870;50.106;8.580;2023-09-19T01:05:49;4.37;;;3.97;;
11245;SDS011;59870;50.106;8.580;2023-09-19T01:08:18;3.97;;;3.67;;
11245;SDS011;59870;50.106;8.580;2023-09-19T01:10:52;4.20;;;3.93;;
11245;SDS011;59870;50.106;8.580;2023-09-19T01:16:32;5.03;;;3.70;;
11245;SDS011;59870;50.106;8.580;2023-09-19T01:21:50;3.97;;;3.67;;
11245;SDS011;59870;50.106;8.580;2023-09-19T01:29:48;4.07;;;3.87;;
11245;SDS011;59870;50.106;8.580;2023-09-19T01:32:17;4.13;;;3.93;;
11245;SDS011;59870;50.106;8.580;2023-09-19T01:34:49;4.77;;;4.30;;
11245;SDS011;59870;50.106;8.580;2023-09-19T01:37:21;3.80;;;3.50;;
11245;SDS011;59870;50.106;8.580;2023-09-19T01:39:54;4.20;;;4.00;;
11245;SDS011;59870;50.106;8.580;2023-09-19T01:49:15;4.07;;;3.77;;
11245;SDS011;59870;50.106;8.580;2023-09-19T01:51:09;4.13;;;3.77;;
11245;SDS011;59870;50.106;8.580;2023-09-19T01:56:12;3.80;;;3.63;;
11245;SDS011;59870;50.106;8.580;2023-09-19T01:58:49;7.97;;;3.80;;
11245;SDS011;59870;50.106;8.580;2023-09-19T02:01:22;4.07;;;3.63;;
11245;SDS011;59870;50.106;8.580;2023-09-19T02:03:52;4.40;;;4.10;;
11245;SDS011;59870;50.106;8.580;2023-09-19T02:06:20;3.90;;;3.67;;
11245;SDS011;59870;50.106;8.580;2023-09-19T02:08:48;4.10;;;3.90;;
11245;SDS011;59870;50.106;8.580;2023-09-19T02:11:16;5.07;;;4.20;;
11245;SDS011;59870;50.106;8.580;2023-09-19T02:13:43;4.60;;;4.30;;
11245;SDS011;59870;50.106;8.580;2023-09-19T02:16:11;4.10;;;3.90;;
11245;SDS011;59870;50.106;8.580;2023-09-19T02:18:40;4.03;;;3.60;;
11245;SDS011;59870;50.106;8.580;2023-09-19T02:21:07;4.20;;;3.93;;
11245;SDS011;59870;50.106;8.580;2023-09-19T02:23:38;3.93;;;3.73;;
11245;SDS011;59870;50.106;8.580;2023-09-19T02:26:06;4.20;;;4.00;;
11245;SDS011;59870;50.106;8.580;2023-09-19T02:28:34;4.30;;;3.87;;
11245;SDS011;59870;50.106;8.580;2023-09-19T02:31:02;4.83;;;4.43;;
11245;SDS011;59870;50.106;8.580;2023-09-19T02:33:32;4.73;;;4.33;;
11245;SDS011;59870;50.106;8.580;2023-09-19T02:36:00;4.03;;;3.73;;
11245;SDS011;59870;50.106;8.580;2023-09-19T02:38:28;4.67;;;4.27;;
11245;SDS011;59870;50.106;8.580;2023-09-19T02:40:56;4.50;;;4.20;;
11245;SDS011;59870;50.106;8.580;2023-09-19T02:43:23;4.83;;;4.53;;
11245;SDS011;59870;50.106;8.580;2023-09-19T02:45:51;4.43;;;4.23;;
11245;SDS011;59870;50.106;8.580;2023-09-19T02:48:22;5.43;;;4.93;;
11245;SDS011;59870;50.106;8.580;2023-09-19T02:50:49;4.27;;;4.07;;
11245;SDS011;59870;50.106;8.580;2023-09-19T02:53:17;4.07;;;3.83;;
11245;SDS011;59870;50.106;8.580;2023-09-19T02:55:48;4.60;;;4.33;;
11245;SDS011;59870;50.106;8.580;2023-09-19T02:58:16;4.77;;;4.20;;
11245;SDS011;59870;50.106;8.580;2023-09-19T03:00:46;4.23;;;4.03;;
11245;SDS011;59870;50.106;8.580;2023-09-19T03:03:15;4.40;;;4.10;;
11245;SDS011;59870;50.106;8.580;2023-09-19T03:05:43;4.23;;;3.93;;
11245;SDS011;59870;50.106;8.580;2023-09-19T03:08:18;4.37;;;4.17;;
11245;SDS011;59870;50.106;8.580;2023-09-19T03:10:47;4.97;;;4.67;;
11245;SDS011;59870;50.106;8.580;2023-09-19T03:13:15;4.23;;;3.97;;
11245;SDS011;59870;50.106;8.580;2023-09-19T03:15:43;8.33;;;3.60;;
11245;SDS011;59870;50.106;8.580;2023-09-19T03:18:15;3.60;;;3.43;;
11245;SDS011;59870;50.106;8.580;2023-09-19T03:20:42;4.93;;;4.57;;
11245;SDS011;59870;50.106;8.580;2023-09-19T03:23:11;4.37;;;4.07;;
11245;SDS011;59870;50.106;8.580;2023-09-19T03:25:40;4.70;;;4.10;;
11245;SDS011;59870;50.106;8.580;2023-09-19T03:28:08;4.37;;;4.00;;
11245;SDS011;59870;50.106;8.580;2023-09-19T03:30:36;7.23;;;4.50;;
11245;SDS011;59870;50.106;8.580;2023-09-19T03:33:05;4.27;;;4.03;;
11245;SDS011;59870;50.106;8.580;2023-09-19T03:35:34;4.60;;;4.30;;
11245;SDS011;59870;50.106;8.580;2023-09-19T03:38:02;4.30;;;3.90;;
11245;SDS011;59870;50.106;8.580;2023-09-19T03:40:30;5.17;;;4.77;;
11245;SDS011;59870;50.106;8.580;2023-09-19T03:43:00;5.10;;;4.60;;
11245;SDS011;59870;50.106;8.580;2023-09-19T03:45:28;4.03;;;3.73;;
11245;SDS011;59870;50.106;8.580;2023-09-19T03:47:55;4.20;;;3.90;;
11245;SDS011;59870;50.106;8.580;2023-09-19T03:50:24;4.33;;;4.00;;
11245;SDS011;59870;50.106;8.580;2023-09-19T03:52:55;4.50;;;4.20;;
11245;SDS011;59870;50.106;8.580;2023-09-19T03:55:24;4.53;;;4.23;;
11245;SDS011;59870;50.106;8.580;2023-09-19T03:57:51;5.10;;;4.70;;
11245;SDS011;59870;50.106;8.580;2023-09-19T04:00:19;4.30;;;4.00;;
11245;SDS011;59870;50.106;8.580;2023-09-19T04:02:48;4.10;;;3.90;;
11245;SDS011;59870;50.106;8.580;2023-09-19T04:05:16;4.60;;;4.10;;
11245;SDS011;59870;50.106;8.580;2023-09-19T04:07:45;4.60;;;4.30;;
11245;SDS011;59870;50.106;8.580;2023-09-19T04:10:13;4.27;;;3.93;;
11245;SDS011;59870;50.106;8.580;2023-09-19T04:12:51;4.37;;;4.07;;
11245;SDS011;59870;50.106;8.580;2023-09-19T04:15:22;3.90;;;3.60;;
11245;SDS011;59870;50.106;8.580;2023-09-19T04:17:53;4.10;;;3.90;;
11245;SDS011;59870;50.106;8.580;2023-09-19T04:20:20;4.03;;;3.73;;
11245;SDS011;59870;50.106;8.580;2023-09-19T04:22:50;4.13;;;3.67;;
11245;SDS011;59870;50.106;8.580;2023-09-19T04:25:18;3.87;;;3.67;;
11245;SDS011;59870;50.106;8.580;2023-09-19T04:27:45;3.80;;;3.60;;
11245;SDS011;59870;50.106;8.580;2023-09-19T04:30:16;4.00;;;3.60;;
11245;SDS011;59870;50.106;8.580;2023-09-19T04:32:43;4.53;;;4.23;;
11245;SDS011;59870;50.106;8.580;2023-09-19T04:35:10;4.43;;;4.10;;
11245;SDS011;59870;50.106;8.580;2023-09-19T04:37:41;4.00;;;3.70;;
11245;SDS011;59870;50.106;8.580;2023-09-19T04:40:09;4.57;;;3.60;;
11245;SDS011;59870;50.106;8.580;2023-09-19T04:42:41;4.07;;;3.77;;
11245;SDS011;59870;50.106;8.580;2023-09-19T04:45:09;4.17;;;3.77;;
11245;SDS011;59870;50.106;8.580;2023-09-19T04:47:37;3.70;;;3.43;;
11245;SDS011;59870;50.106;8.580;2023-09-19T04:50:09;3.90;;;3.60;;
11245;SDS011;59870;50.106;8.580;2023-09-19T04:52:41;5.77;;;4.23;;
11245;SDS011;59870;50.106;8.580;2023-09-19T04:55:15;4.53;;;4.27;;
11245;SDS011;59870;50.106;8.580;2023-09-19T04:57:47;4.47;;;4.17;;
11245;SDS011;59870;50.106;8.580;2023-09-19T05:00:17;4.10;;;3.80;;
11245;SDS011;59870;50.106;8.580;2023-09-19T05:02:46;4.87;;;4.57;;
11245;SDS011;59870;50.106;8.580;2023-09-19T05:05:16;4.97;;;4.43;;
11245;SDS011;59870;50.106;8.580;2023-09-19T05:07:46;3.47;;;3.27;;
11245;SDS011;59870;50.106;8.580;2023-09-19T05:10:14;4.17;;;3.27;;
11245;SDS011;59870;50.106;8.580;2023-09-19T05:12:45;3.50;;;3.20;;
11245;SDS011;59870;50.106;8.580;2023-09-19T05:15:14;4.03;;;3.73;;
11245;SDS011;59870;50.106;8.580;2023-09-19T05:17:50;3.90;;;3.50;;
11245;SDS011;59870;50.106;8.580;2023-09-19T05:20:23;4.10;;;3.80;;
11245;SDS011;59870;50.106;8.580;2023-09-19T05:22:57;4.03;;;3.83;;
11245;SDS011;59870;50.106;8.580;2023-09-19T05:25:33;4.63;;;3.70;;
11245;SDS011;59870;50.106;8.580;2023-09-19T05:28:06;3.53;;;3.30;;
11245;SDS011;59870;50.106;8.580;2023-09-19T05:30:35;4.40;;;4.10;;
11245;SDS011;59870;50.106;8.580;2023-09-19T05:33:04;4.37;;;4.03;;
11245;SDS011;59870;50.106;8.580;2023-09-19T05:35:32;3.83;;;3.63;;
11245;SDS011;59870;50.106;8.580;2023-09-19T05:38:00;3.63;;;3.43;;
11245;SDS011;59870;50.106;8.580;2023-09-19T05:40:27;4.30;;;3.90;;
11245;SDS011;59870;50.106;8.580;2023-09-19T05:42:55;5.63;;;3.40;;
11245;SDS011;59870;50.106;8.580;2023-09-19T05:45:22;4.43;;;4.03;;
11245;SDS011;59870;50.106;8.580;2023-09-19T05:47:50;4.83;;;3.93;;
11245;SDS011;59870;50.106;8.580;2023-09-19T05:50:19;4.30;;;3.40;;
11245;SDS011;59870;50.106;8.580;2023-09-19T05:52:53;2.90;;;2.70;;
11245;SDS011;59870;50.106;8.580;2023-09-19T05:55:25;6.70;;;3.80;;
11245;SDS011;59870;50.106;8.580;2023-09-19T05:57:54;4.03;;;3.60;;
11245;SDS011;59870;50.106;8.580;2023-09-19T06:00:22;3.60;;;3.30;;
11245;SDS011;59870;50.106;8.580;2023-09-19T06:02:51;3.17;;;3.07;;
11245;SDS011;59870;50.106;8.580;2023-09-19T06:05:25;4.53;;;3.73;;
11245;SDS011;59870;50.106;8.580;2023-09-19T06:07:54;3.50;;;3.20;;
11245;SDS011;59870;50.106;8.580;2023-09-19T06:10:21;3.80;;;3.50;;
11245;SDS011;59870;50.106;8.580;2023-09-19T06:12:49;3.93;;;3.53;;
11245;SDS011;59870;50.106;8.580;2023-09-19T06:15:18;4.97;;;3.60;;
11245;SDS011;59870;50.106;8.580;2023-09-19T06:17:47;3.53;;;3.23;;
11245;SDS011;59870;50.106;8.580;2023-09-19T06:20:27;3.60;;;3.30;;
11245;SDS011;59870;50.106;8.580;2023-09-19T06:22:55;3.47;;;3.10;;
11245;SDS011;59870;50.106;8.580;2023-09-19T06:25:24;5.60;;;3.43;;
11245;SDS011;59870;50.106;8.580;2023-09-19T06:27:52;3.60;;;3.40;;
11245;SDS011;59870;50.106;8.580;2023-09-19T06:30:24;3.70;;;3.40;;
11245;SDS011;59870;50.106;8.580;2023-09-19T06:32:56;4.10;;;3.70;;
11245;SDS011;59870;50.106;8.580;2023-09-19T06:35:25;3.70;;;3.33;;
11245;SDS011;59870;50.106;8.580;2023-09-19T06:37:53;3.53;;;3.23;;
11245;SDS011;59870;50.106;8.580;2023-09-19T06:40:21;3.50;;;3.30;;
11245;SDS011;59870;50.106;8.580;2023-09-19T06:42:51;3.47;;;3.20;;
11245;SDS011;59870;50.106;8.580;2023-09-19T06:45:20;4.90;;;3.63;;
11245;SDS011;59870;50.106;8.580;2023-09-19T06:47:50;6.83;;;3.90;;
11245;SDS011;59870;50.106;8.580;2023-09-19T06:50:22;8.40;;;3.90;;
11245;SDS011;59870;50.106;8.580;2023-09-19T06:52:50;4.10;;;3.70;;
11245;SDS011;59870;50.106;8.580;2023-09-19T06:55:21;6.27;;;4.07;;
11245;SDS011;59870;50.106;8.580;2023-09-19T06:57:51;3.30;;;3.07;;
11245;SDS011;59870;50.106;8.580;2023-09-19T07:00:21;3.57;;;3.23;;
11245;SDS011;59870;50.106;8.580;2023-09-19T07:02:59;5.87;;;3.30;;
11245;SDS011;59870;50.106;8.580;2023-09-19T07:05:28;3.50;;;3.30;;
11245;SDS011;59870;50.106;8.580;2023-09-19T07:07:57;3.93;;;3.63;;
11245;SDS011;59870;50.106;8.580;2023-09-19T07:10:29;4.03;;;3.40;;
11245;SDS011;59870;50.106;8.580;2023-09-19T07:13:01;3.60;;;3.30;;
11245;SDS011;59870;50.106;8.580;2023-09-19T07:15:32;5.63;;;3.73;;
11245;SDS011;59870;50.106;8.580;2023-09-19T07:18:06;3.50;;;3.30;;
11245;SDS011;59870;50.106;8.580;2023-09-19T07:20:33;4.13;;;3.83;;
11245;SDS011;59870;50.106;8.580;2023-09-19T07:23:01;4.20;;;4.00;;
11245;SDS011;59870;50.106;8.580;2023-09-19T07:25:29;5.00;;;4.50;;
11245;SDS011;59870;50.106;8.580;2023-09-19T07:27:57;3.77;;;3.50;;
11245;SDS011;59870;50.106;8.580;2023-09-19T07:30:27;4.97;;;4.10;;
11245;SDS011;59870;50.106;8.580;2023-09-19T07:32:57;4.47;;;4.03;;
11245;SDS011;59870;50.106;8.580;2023-09-19T07:35:25;4.87;;;4.30;;
11245;SDS011;59870;50.106;8.580;2023-09-19T07:37:52;4.30;;;3.90;;
11245;SDS011;59870;50.106;8.580;2023-09-19T07:40:20;3.27;;;3.07;;
11245;SDS011;59870;50.106;8.580;2023-09-19T07:42:48;3.70;;;3.40;;
11245;SDS011;59870;50.106;8.580;2023-09-19T07:45:19;5.73;;;3.37;;
11245;SDS011;59870;50.106;8.580;2023-09-19T07:47:47;3.77;;;3.40;;
11245;SDS011;59870;50.106;8.580;2023-09-19T07:50:18;4.60;;;3.10;;
11245;SDS011;59870;50.106;8.580;2023-09-19T07:52:49;3.93;;;3.63;;
11245;SDS011;59870;50.106;8.580;2023-09-19T07:55:21;4.60;;;2.90;;
11245;SDS011;59870;50.106;8.580;2023-09-19T07:57:55;3.97;;;3.60;;
11245;SDS011;59870;50.106;8.580;2023-09-19T08:00:23;3.40;;;3.20;;
11245;SDS011;59870;50.106;8.580;2023-09-19T08:02:50;3.93;;;3.23;;
11245;SDS011;59870;50.106;8.580;2023-09-19T08:05:30;3.20;;;3.00;;
11245;SDS011;59870;50.106;8.580;2023-09-19T08:07:57;3.47;;;3.17;;
11245;SDS011;59870;50.106;8.580;2023-09-19T08:10:26;5.27;;;3.23;;
11245;SDS011;59870;50.106;8.580;2023-09-19T08:12:54;3.20;;;2.90;;
11245;SDS011;59870;50.106;8.580;2023-09-19T08:15:25;3.13;;;2.83;;
11245;SDS011;59870;50.106;8.580;2023-09-19T08:17:53;4.17;;;2.90;;
11245;SDS011;59870;50.106;8.580;2023-09-19T08:20:21;3.03;;;2.73;;
11245;SDS011;59870;50.106;8.580;2023-09-19T08:22:49;4.77;;;2.70;;
11245;SDS011;59870;50.106;8.580;2023-09-19T08:25:24;3.10;;;2.80;;
11245;SDS011;59870;50.106;8.580;2023-09-19T08:27:55;3.20;;;2.90;;
11245;SDS011;59870;50.106;8.580;2023-09-19T08:30:24;3.30;;;3.10;;
11245;SDS011;59870;50.106;8.580;2023-09-19T08:32:57;3.40;;;3.13;;
11245;SDS011;59870;50.106;8.580;2023-09-19T08:35:28;2.90;;;2.70;;
11245;SDS011;59870;50.106;8.580;2023-09-19T08:37:59;3.17;;;2.97;;
11245;SDS011;59870;50.106;8.580;2023-09-19T08:40:31;3.17;;;2.93;;
11245;SDS011;59870;50.106;8.580;2023-09-19T08:43:00;3.17;;;2.57;;
11245;SDS011;59870;50.106;8.580;2023-09-19T08:45:28;2.93;;;2.73;;
11245;SDS011;59870;50.106;8.580;2023-09-19T08:50:49;4.37;;;3.57;;
11245;SDS011;59870;50.106;8.580;2023-09-19T08:53:26;3.70;;;3.40;;
11245;SDS011;59870;50.106;8.580;2023-09-19T08:55:59;4.83;;;3.60;;
11245;SDS011;59870;50.106;8.580;2023-09-19T08:58:31;3.80;;;3.50;;
11245;SDS011;59870;50.106;8.580;2023-09-19T09:01:03;3.70;;;3.40;;
11245;SDS011;59870;50.106;8.580;2023-09-19T09:03:33;4.00;;;3.70;;
11245;SDS011;59870;50.106;8.580;2023-09-19T09:06:02;4.90;;;3.70;;
11245;SDS011;59870;50.106;8.580;2023-09-19T09:08:30;4.70;;;3.90;;
11245;SDS011;59870;50.106;8.580;2023-09-19T09:10:59;4.43;;;3.23;;
11245;SDS011;59870;50.106;8.580;2023-09-19T09:13:27;4.17;;;3.63;;
11245;SDS011;59870;50.106;8.580;2023-09-19T09:15:59;5.17;;;3.40;;
11245;SDS011;59870;50.106;8.580;2023-09-19T09:18:27;3.87;;;3.57;;
11245;SDS011;59870;50.106;8.580;2023-09-19T09:20:57;4.03;;;3.47;;
11245;SDS011;59870;50.106;8.580;2023-09-19T09:23:26;5.10;;;3.63;;
11245;SDS011;59870;50.106;8.580;2023-09-19T09:25:59;4.20;;;3.80;;
11245;SDS011;59870;50.106;8.580;2023-09-19T09:28:33;3.63;;;3.27;;
11245;SDS011;59870;50.106;8.580;2023-09-19T09:31:02;4.20;;;3.80;;
11245;SDS011;59870;50.106;8.580;2023-09-19T09:33:35;6.37;;;4.43;;
11245;SDS011;59870;50.106;8.580;2023-09-19T09:36:03;3.53;;;3.23;;
11245;SDS011;59870;50.106;8.580;2023-09-19T09:38:43;4.10;;;3.60;;
11245;SDS011;59870;50.106;8.580;2023-09-19T09:41:11;4.57;;;3.77;;
11245;SDS011;59870;50.106;8.580;2023-09-19T09:43:43;3.73;;;3.43;;
11245;SDS011;59870;50.106;8.580;2023-09-19T09:46:18;4.17;;;3.47;;
11245;SDS011;59870;50.106;8.580;2023-09-19T09:51:46;4.13;;;3.73;;
11245;SDS011;59870;50.106;8.580;2023-09-19T09:54:29;5.37;;;4.17;;
11245;SDS011;59870;50.106;8.580;2023-09-19T09:57:07;3.80;;;3.53;;
11245;SDS011;59870;50.106;8.580;2023-09-19T09:59:47;7.60;;;4.00;;
11245;SDS011;59870;50.106;8.580;2023-09-19T10:02:17;8.77;;;4.27;;
11245;SDS011;59870;50.106;8.580;2023-09-19T10:04:54;5.40;;;3.87;;
11245;SDS011;59870;50.106;8.580;2023-09-19T10:07:41;4.70;;;4.30;;
11245;SDS011;59870;50.106;8.580;2023-09-19T10:10:32;5.93;;;4.20;;
11245;SDS011;59870;50.106;8.580;2023-09-19T10:13:07;4.33;;;3.77;;
11245;SDS011;59870;50.106;8.580;2023-09-19T10:15:42;4.27;;;3.50;;
11245;SDS011;59870;50.106;8.580;2023-09-19T10:18:21;4.43;;;3.50;;
11245;SDS011;59870;50.106;8.580;2023-09-19T10:20:50;4.40;;;4.00;;
11245;SDS011;59870;50.106;8.580;2023-09-19T10:23:19;5.20;;;4.40;;
11245;SDS011;59870;50.106;8.580;2023-09-19T10:25:51;6.57;;;4.50;;
11245;SDS011;59870;50.106;8.580;2023-09-19T10:28:20;5.03;;;4.53;;
11245;SDS011;59870;50.106;8.580;2023-09-19T10:30:52;5.27;;;4.10;;
11245;SDS011;59870;50.106;8.580;2023-09-19T10:33:21;4.73;;;4.27;;
11245;SDS011;59870;50.106;8.580;2023-09-19T10:35:53;4.03;;;3.67;;
11245;SDS011;59870;50.106;8.580;2023-09-19T10:38:24;5.67;;;4.10;;
11245;SDS011;59870;50.106;8.580;2023-09-19T10:40:56;6.23;;;4.37;;
11245;SDS011;59870;50.106;8.580;2023-09-19T10:43:32;5.37;;;3.60;;
11245;SDS011;59870;50.106;8.580;2023-09-19T10:46:03;5.60;;;4.17;;
11245;SDS011;59870;50.106;8.580;2023-09-19T10:48:38;4.30;;;3.93;;
11245;SDS011;59870;50.106;8.580;2023-09-19T10:51:09;5.40;;;4.20;;
11245;SDS011;59870;50.106;8.580;2023-09-19T10:56:16;5.20;;;4.70;;
11245;SDS011;59870;50.106;8.580;2023-09-19T10:58:50;5.03;;;4.13;;
11245;SDS011;59870;50.106;8.580;2023-09-19T11:01:18;5.73;;;4.23;;
11245;SDS011;59870;50.106;8.580;2023-09-19T11:03:47;5.40;;;4.20;;
11245;SDS011;59870;50.106;8.580;2023-09-19T11:06:18;5.83;;;3.70;;
11245;SDS011;59870;50.106;8.580;2023-09-19T11:09:00;4.47;;;3.90;;
11245;SDS011;59870;50.106;8.580;2023-09-19T11:30:35;5.90;;;3.70;;
11245;SDS011;59870;50.106;8.580;2023-09-19T11:36:07;3.97;;;3.10;;
11245;SDS011;59870;50.106;8.580;2023-09-19T11:46:34;12.97;;;4.87;;
11245;SDS011;59870;50.106;8.580;2023-09-19T11:49:15;5.20;;;3.80;;
11245;SDS011;59870;50.106;8.580;2023-09-19T11:51:47;5.30;;;3.77;;
11245;SDS011;59870;50.106;8.580;2023-09-19T11:54:17;3.70;;;3.40;;
11245;SDS011;59870;50.106;8.580;2023-09-19T11:56:49;3.83;;;3.37;;
11245;SDS011;59870;50.106;8.580;2023-09-19T11:59:21;4.60;;;3.43;;
11245;SDS011;59870;50.106;8.580;2023-09-19T12:01:56;6.70;;;3.67;;
11245;SDS011;59870;50.106;8.580;2023-09-19T12:04:37;4.53;;;4.03;;
11245;SDS011;59870;50.106;8.580;2023-09-19T12:07:13;7.03;;;3.63;;
11245;SDS011;59870;50.106;8.580;2023-09-19T12:09:44;4.27;;;3.83;;
11245;SDS011;59870;50.106;8.580;2023-09-19T12:12:20;4.63;;;3.50;;
11245;SDS011;59870;50.106;8.580;2023-09-19T12:14:54;5.10;;;3.67;;
11245;SDS011;59870;50.106;8.580;2023-09-19T12:17:37;4.10;;;3.20;;
11245;SDS011;59870;50.106;8.580;2023-09-19T12:20:08;4.00;;;3.70;;
11245;SDS011;59870;50.106;8.580;2023-09-19T12:22:44;4.43;;;3.47;;
11245;SDS011;59870;50.106;8.580;2023-09-19T12:25:13;4.43;;;3.53;;
11245;SDS011;59870;50.106;8.580;2023-09-19T12:27:44;4.33;;;3.60;;
11245;SDS011;59870;50.106;8.580;2023-09-19T12:30:16;4.70;;;3.60;;
11245;SDS011;59870;50.106;8.580;2023-09-19T12:32:54;4.43;;;3.60;;
11245;SDS011;59870;50.106;8.580;2023-09-19T12:35:29;7.53;;;3.47;;
11245;SDS011;59870;50.106;8.580;2023-09-19T12:38:03;3.70;;;3.30;;
11245;SDS011;59870;50.106;8.580;2023-09-19T12:40:32;4.73;;;3.00;;
11245;SDS011;59870;50.106;8.580;2023-09-19T12:43:03;4.07;;;3.53;;
11245;SDS011;59870;50.106;8.580;2023-09-19T12:45:31;5.07;;;3.80;;
11245;SDS011;59870;50.106;8.580;2023-09-19T12:48:18;4.03;;;3.63;;
11245;SDS011;59870;50.106;8.580;2023-09-19T12:51:08;4.77;;;3.60;;
11245;SDS011;59870;50.106;8.580;2023-09-19T12:53:40;4.07;;;3.30;;
11245;SDS011;59870;50.106;8.580;2023-09-19T12:56:12;4.00;;;3.07;;
11245;SDS011;59870;50.106;8.580;2023-09-19T13:01:25;3.33;;;3.07;;
11245;SDS011;59870;50.106;8.580;2023-09-19T13:04:10;3.70;;;2.87;;
11245;SDS011;59870;50.106;8.580;2023-09-19T13:06:46;4.63;;;2.70;;
11245;SDS011;59870;50.106;8.580;2023-09-19T13:09:16;3.13;;;2.80;;
11245;SDS011;59870;50.106;8.580;2023-09-19T13:11:47;3.43;;;3.00;;
11245;SDS011;59870;50.106;8.580;2023-09-19T13:14:18;3.33;;;3.03;;
11245;SDS011;59870;50.106;8.580;2023-09-19T13:17:05;3.13;;;2.83;;
11245;SDS011;59870;50.106;8.580;2023-09-19T13:19:50;3.20;;;2.90;;
11245;SDS011;59870;50.106;8.580;2023-09-19T13:22:43;3.23;;;2.93;;
11245;SDS011;59870;50.106;8.580;2023-09-19T13:25:21;3.20;;;2.90;;
11245;SDS011;59870;50.106;8.580;2023-09-19T13:27:53;4.77;;;3.47;;
11245;SDS011;59870;50.106;8.580;2023-09-19T13:30:23;4.03;;;3.43;;
11245;SDS011;59870;50.106;8.580;2023-09-19T13:32:52;3.30;;;3.00;;
11245;SDS011;59870;50.106;8.580;2023-09-19T13:35:32;3.20;;;2.80;;
11245;SDS011;59870;50.106;8.580;2023-09-19T13:38:00;3.67;;;3.10;;
11245;SDS011;59870;50.106;8.580;2023-09-19T13:40:28;2.87;;;2.60;;
11245;SDS011;59870;50.106;8.580;2023-09-19T13:42:58;3.43;;;2.97;;
11245;SDS011;59870;50.106;8.580;2023-09-19T13:45:26;3.80;;;3.13;;
11245;SDS011;59870;50.106;8.580;2023-09-19T13:47:53;3.60;;;3.30;;
11245;SDS011;59870;50.106;8.580;2023-09-19T13:50:22;3.77;;;2.70;;
11245;SDS011;59870;50.106;8.580;2023-09-19T13:52:52;7.67;;;3.43;;
11245;SDS011;59870;50.106;8.580;2023-09-19T13:55:21;5.20;;;2.83;;
11245;SDS011;59870;50.106;8.580;2023-09-19T13:57:49;3.03;;;2.73;;
11245;SDS011;59870;50.106;8.580;2023-09-19T14:00:23;3.00;;;2.77;;
11245;SDS011;59870;50.106;8.580;2023-09-19T14:02:50;3.43;;;3.17;;
11245;SDS011;59870;50.106;8.580;2023-09-19T14:05:18;3.17;;;2.87;;
11245;SDS011;59870;50.106;8.580;2023-09-19T14:07:47;4.80;;;2.97;;
11245;SDS011;59870;50.106;8.580;2023-09-19T14:10:15;4.83;;;3.40;;
11245;SDS011;59870;50.106;8.580;2023-09-19T14:12:44;3.03;;;2.83;;
11245;SDS011;59870;50.106;8.580;2023-09-19T14:15:13;3.63;;;3.30;;
11245;SDS011;59870;50.106;8.580;2023-09-19T14:17:41;3.17;;;2.93;;
11245;SDS011;59870;50.106;8.580;2023-09-19T14:20:10;3.97;;;3.20;;
11245;SDS011;59870;50.106;8.580;2023-09-19T14:22:38;3.83;;;3.50;;
11245;SDS011;59870;50.106;8.580;2023-09-19T14:25:06;3.77;;;3.40;;
11245;SDS011;59870;50.106;8.580;2023-09-19T14:27:34;3.30;;;3.10;;
11245;SDS011;59870;50.106;8.580;2023-09-19T14:30:01;4.30;;;4.00;;
11245;SDS011;59870;50.106;8.580;2023-09-19T14:32:28;4.47;;;3.80;;
11245;SDS011;59870;50.106;8.580;2023-09-19T14:34:56;3.80;;;3.57;;
11245;SDS011;59870;50.106;8.580;2023-09-19T14:37:23;3.80;;;3.50;;
11245;SDS011;59870;50.106;8.580;2023-09-19T14:39:51;3.67;;;3.37;;
11245;SDS011;59870;50.106;8.580;2023-09-19T14:42:19;3.77;;;3.57;;
11245;SDS011;59870;50.106;8.580;2023-09-19T14:44:47;3.40;;;3.20;;
11245;SDS011;59870;50.106;8.580;2023-09-19T14:47:15;3.17;;;3.00;;
11245;SDS011;59870;50.106;8.580;2023-09-19T14:49:46;3.90;;;3.60;;
11245;SDS011;59870;50.106;8.580;2023-09-19T14:52:13;3.87;;;3.53;;
11245;SDS011;59870;50.106;8.580;2023-09-19T14:54:43;4.27;;;3.60;;
11245;SDS011;59870;50.106;8.580;2023-09-19T14:57:10;4.00;;;3.20;;
11245;SDS011;59870;50.106;8.580;2023-09-19T14:59:38;4.27;;;3.97;;
11245;SDS011;59870;50.106;8.580;2023-09-19T15:02:06;3.90;;;3.50;;
11245;SDS011;59870;50.106;8.580;2023-09-19T15:04:34;3.80;;;3.50;;
11245;SDS011;59870;50.106;8.580;2023-09-19T15:07:02;4.30;;;3.30;;
11245;SDS011;59870;50.106;8.580;2023-09-19T15:09:30;3.87;;;3.57;;
11245;SDS011;59870;50.106;8.580;2023-09-19T15:12:00;3.83;;;3.53;;
11245;SDS011;59870;50.106;8.580;2023-09-19T15:14:27;6.33;;;3.90;;
11245;SDS011;59870;50.106;8.580;2023-09-19T15:16:56;3.67;;;3.47;;
11245;SDS011;59870;50.106;8.580;2023-09-19T15:19:24;3.97;;;3.67;;
11245;SDS011;59870;50.106;8.580;2023-09-19T15:21:51;4.10;;;3.80;;
11245;SDS011;59870;50.106;8.580;2023-09-19T15:24:19;3.80;;;3.60;;
11245;SDS011;59870;50.106;8.580;2023-09-19T15:26:47;5.60;;;3.77;;
11245;SDS011;59870;50.106;8.580;2023-09-19T15:29:14;5.13;;;3.70;;
11245;SDS011;59870;50.106;8.580;2023-09-19T15:31:43;3.90;;;3.60;;
11245;SDS011;59870;50.106;8.580;2023-09-19T15:34:10;4.00;;;3.60;;
11245;SDS011;59870;50.106;8.580;2023-09-19T15:36:41;4.53;;;4.13;;
11245;SDS011;59870;50.106;8.580;2023-09-19T15:39:09;4.17;;;3.53;;
11245;SDS011;59870;50.106;8.580;2023-09-19T15:41:39;3.90;;;3.50;;
11245;SDS011;59870;50.106;8.580;2023-09-19T15:44:26;5.13;;;3.70;;
11245;SDS011;59870;50.106;8.580;2023-09-19T15:46:53;3.90;;;3.60;;
11245;SDS011;59870;50.106;8.580;2023-09-19T15:49:21;3.70;;;3.30;;
11245;SDS011;59870;50.106;8.580;2023-09-19T15:51:49;3.33;;;3.13;;
11245;SDS011;59870;50.106;8.580;2023-09-19T15:54:17;3.83;;;3.53;;
11245;SDS011;59870;50.106;8.580;2023-09-19T15:56:45;3.90;;;3.70;;
11245;SDS011;59870;50.106;8.580;2023-09-19T15:59:14;3.83;;;3.40;;
11245;SDS011;59870;50.106;8.580;2023-09-19T16:01:42;7.00;;;4.07;;
11245;SDS011;59870;50.106;8.580;2023-09-19T16:04:11;4.10;;;3.70;;
11245;SDS011;59870;50.106;8.580;2023-09-19T16:06:41;4.10;;;3.80;;
11245;SDS011;59870;50.106;8.580;2023-09-19T16:09:09;3.80;;;3.50;;